Station: Mandurah

  Atmospheric Gas Attenuation - ITU Rec 676-11   --------------- db/100km ---------------
Date Time Temp RH % AH g/m3 Dew Point Wind Direction Speed kph Gust kph Barometer mB Rainfall Since 9am 24GHz 47GHz 76GHz 122GHz 134GHz 241GHz
04 05:10 9.9 85 7.94 7.6 11 15 1013.1 1.4 18.4 25.9 39.0 102.4 94.4 324.0
04 05:00 9.8 85 7.89 7.4 15 20 1009.3 1.4 18.3 25.7 38.7 101.6 93.5 321.0
04 04:50 10.1 86 8.13 7.8 17 20 1013.1 1.4 18.8 26.2 39.7 104.2 96.7 332.2
04 04:40 10.1 86 8.13 7.8 11 15 1013.1 1.4 18.8 26.2 39.7 104.2 96.7 332.2
04 04:30 10.1 86 8.13 7.9 17 28 1009.3 1.4 18.8 26.1 39.6 103.8 96.4 331.2
04 04:20 10 85 7.99 7.6 15 19 1013.1 1.4 18.5 26.0 39.2 102.8 95.0 326.0
04 04:10 9.9 85 7.94 7.5 15 22 1013.1 1.4 18.4 25.9 39.0 102.4 94.4 324.0
04 04:00 9.9 85 7.94 7.5 13 20 1009.1 1.4 18.4 25.8 38.9 102.0 94.1 322.9
04 03:40 9.8 85 7.89 7.4 15 19 1013.1 1.4 18.3 25.9 38.9 102.0 93.8 322.0
04 03:30 9.8 85 7.89 7.4 11 17 1009.1 1.4 18.3 25.7 38.7 101.6 93.5 321.0
04 03:20 9.8 85 7.89 7.4 11 11 1013.1 1.4 18.3 25.9 38.9 102.0 93.8 322.0
04 03:10 9.9 85 7.94 7.5 9 13 1013.1 1.4 18.4 25.9 39.0 102.4 94.4 324.0
04 03:00 9.9 84 7.85 7.3 7 13 1008.7 1.4 18.2 25.6 38.5 101.0 92.8 318.6
04 02:50 10.1 83 7.85 7.3 9 11 1013.1 1.4 18.2 25.7 38.6 101.2 92.9 318.9
04 02:40 10.1 83 7.85 7.3 9 11 1013.1 1.4 18.2 25.7 38.6 101.2 92.9 318.9
04 02:30 10 82 7.71 7.1 11 15 1008.7 1.4 17.9 25.4 37.9 99.3 90.8 311.5
04 02:20 9.9 81 7.56 6.9 11 13 1013.1 1.4 17.5 25.3 37.5 98.2 89.3 306.0
04 02:10 10 83 7.8 7.2 9 11 1013.1 1.4 18.1 25.7 38.4 100.7 92.4 316.9
04 02:00 9.9 82 7.66 7 9 15 1008.7 1.4 17.8 25.3 37.7 98.9 90.3 309.6
04 01:50 10 81 7.61 7 9 13 1013.1 1.4 17.6 25.4 37.6 98.7 89.8 308.0
04 01:30 10.1 81 7.66 7 11 17 1008.6 1.4 17.7 25.3 37.6 98.6 90.0 308.8
04 01:20 10.1 81 7.66 7 13 15 1013.1 1.4 17.7 25.4 37.8 99.1 90.4 309.9
04 01:10 10.3 82 7.85 7.3 11 13 1013.1 1.4 18.1 25.7 38.5 100.9 92.7 318.1
04 01:00 10.3 82 7.85 7.4 11 17 1008.5 1.4 18.1 25.5 38.3 100.4 92.3 316.9
04 00:50 10.2 81 7.71 7.1 7 9 1013.1 1.4 17.9 25.5 38.0 99.5 90.9 311.9
04 00:40 10.3 80 7.66 7.1 11 15 1013.1 1.4 17.7 25.4 37.7 98.8 90.1 309.1
04 00:30 10.3 80 7.66 7 9 15 1008.3 1.4 17.7 25.2 37.5 98.3 89.8 307.9
04 00:20 10.3 80 7.66 7 11 13 1013.1 1.4 17.7 25.4 37.7 98.8 90.1 309.1
04 00:10 10.3 79 7.57 6.8 11 15 1013.1 1.4 17.5 25.2 37.3 97.9 88.9 304.9
04 00:00 10.3 78 7.47 6.6 13 19 1008.1 1.4 17.3 24.9 36.7 96.3 87.2 299.0
03 23:50 10.4 78 7.52 6.7 9 13 1013.1 1.4 17.4 25.1 37.1 97.2 88.2 302.2
03 23:40 10.3 78 7.47 6.6 11 13 1013.1 1.4 17.3 25.1 36.9 96.8 87.6 300.3
03 23:30 10.4 78 7.52 6.7 11 19 1008.2 1.4 17.4 24.9 36.9 96.7 87.8 301.0
03 23:20 10.7 78 7.66 7 11 15 1013.1 1.4 17.7 25.3 37.5 98.3 89.7 307.6
03 23:10 10.8 78 7.71 7.1 7 9 1013.1 1.4 17.8 25.3 37.7 98.7 90.2 309.5
03 23:00 10.8 77 7.61 6.9 11 17 1008 1.4 17.6 25.0 37.0 97.1 88.5 303.6
03 22:50 10.7 78 7.66 7 15 17 1013.1 1.4 17.7 25.3 37.5 98.3 89.7 307.6
03 22:40 10.6 77 7.52 6.7 11 15 1013.1 1.4 17.4 25.1 37.0 96.9 87.9 301.4
03 22:30 10.8 78 7.71 7.1 11 20 1008.1 1.4 17.8 25.1 37.4 98.2 89.9 308.2
03 22:20 10.9 79 7.86 7.4 11 13 1013.1 1.4 18.1 25.5 38.2 100.2 92.1 316.1
03 22:10 10.9 80 7.96 7.6 9 13 1013.1 1.4 18.4 25.7 38.6 101.3 93.5 320.8
03 22:00 10.7 79 7.76 7.2 11 17 1008.1 1.4 17.9 25.2 37.7 98.9 90.6 311.0
03 21:50 10.4 80 7.71 7.1 9 11 1013.1 1.4 17.8 25.4 37.9 99.2 90.7 311.1
03 21:40 10.2 80 7.61 6.9 7 9 1013.1 1.4 17.6 25.3 37.5 98.4 89.6 307.2
03 21:30 10.2 80 7.61 6.9 9 13 1008 1.4 17.6 25.1 37.3 97.9 89.2 305.9
03 21:20 10.1 83 7.85 7.3 9 11 1013.1 1.4 18.2 25.7 38.6 101.2 92.9 318.9
03 21:10 10.2 84 8 7.6 6 9 1013.1 1.4 18.5 26.0 39.1 102.7 94.9 325.6
03 21:00 10.3 85 8.14 7.9 7 11 1008.4 1.4 18.8 26.0 39.5 103.6 96.3 330.6
03 20:50 10.3 85 8.14 7.9 6 6 1013.1 1.4 18.8 26.2 39.7 104.1 96.6 331.8
03 20:40 10.5 84 8.15 8 11 11 1013.1 1.4 18.8 26.1 39.6 103.9 96.5 331.5
03 20:30 10.6 85 8.3 8.2 9 15 1008.3 1.4 19.1 26.2 40.0 104.9 98.0 336.9
03 20:20 10.7 86 8.45 8.4 11 13 1013.1 1.4 19.4 26.6 40.8 107.0 100.4 344.9
03 20:10 10.8 84 8.3 8.3 13 17 1013.1 1.4 19.1 26.3 40.1 105.2 98.2 337.3
03 20:00 10.8 86 8.5 8.6 11 15 1007.9 1.4 19.5 26.4 40.7 106.8 100.5 345.4
03 19:50 10.8 87 8.6 8.7 9 11 1013.1 1.4 19.7 26.8 41.3 108.5 102.3 351.7
03 19:40 10.9 87 8.66 8.8 9 11 1013.1 1.4 19.9 26.9 41.5 109.0 103.0 354.1
03 19:30 11.1 87 8.76 9 11 15 1007.8 1.4 20.1 26.8 41.6 109.3 103.6 356.5
03 19:20 11.1 87 8.76 9 9 13 1013.1 1.4 20.1 27.0 41.8 109.9 104.1 358.0
03 19:10 11.6 85 8.84 9.1 15 17 1013.1 1 20.2 26.9 41.9 110.1 104.5 359.6
03 19:00 12.1 79 8.47 8.6 19 24 1007.6 0.6 19.4 26.0 39.9 104.7 98.4 338.2
03 18:50 12.5 74 8.14 8 15 19 1013.1 0.4 18.7 25.5 38.6 101.2 93.9 322.6
03 18:40 12.3 75 8.14 8 11 15 1013.1 0.4 18.7 25.6 38.7 101.5 94.2 323.5
03 18:30 12.1 74 7.94 7.6 6 9 1007.1 0.4 18.3 25.1 37.7 99.0 91.3 313.5
03 18:20 12 75 7.99 7.7 6 6 1013.1 0.4 18.4 25.4 38.2 100.2 92.5 317.7
03 18:10 12 74 7.89 7.5 4 4 1013.1 0.4 18.2 25.3 37.8 99.2 91.2 313.1
03 18:00 12.3 75 8.14 8 7 13 1006.6 0.4 18.7 25.3 38.4 100.8 93.6 321.7
03 17:50 12.6 75 8.3 8.3 9 13 1013.1 0.4 19.0 25.7 39.2 102.8 95.9 329.6
03 17:40 12.4 75 8.2 8.1 15 19 1013.1 0.4 18.8 25.6 38.9 102.0 94.8 325.8
03 17:30 12.3 73 7.93 7.6 13 19 1006.5 0.4 18.2 25.0 37.6 98.5 90.9 312.0
03 17:20 12.5 74 8.14 8 19 20 1013.1 0.4 18.7 25.5 38.6 101.2 93.9 322.6
03 17:10 12.7 73 8.13 8 19 22 1013.1 0.4 18.6 25.4 38.4 100.8 93.5 321.4
03 17:00 12.7 72 8.02 7.8 9 13 1005.7 0.4 18.4 25.0 37.7 98.9 91.5 314.4
03 16:50 12.9 70 7.89 7.7 9 13 1013.1 0.4 18.1 25.0 37.4 98.0 90.2 309.5
03 16:40 12.7 71 7.9 7.7 7 9 1013.1 0.4 18.1 25.1 37.5 98.4 90.5 310.8
03 16:30 13 72 8.17 8.1 11 20 1005.6 0.4 18.7 25.1 38.1 100.1 93.1 320.0
03 16:20 13.2 73 8.38 8.6 13 15 1013.1 0.4 19.1 25.7 39.2 102.9 96.2 330.8
03 16:10 13.1 72 8.22 8.3 19 22 1013.1 0.4 18.8 25.5 38.6 101.3 94.2 323.9
03 16:00 13.2 76 8.73 9.1 17 22 1005.6 0.4 19.9 26.0 40.3 105.8 100.3 345.0
03 15:50 13.2 74 8.5 8.8 19 22 1013.1 0.4 19.4 25.9 39.7 104.2 97.8 336.4
03 15:40 13.4 74 8.6 8.8 24 28 1013.1 0.4 19.6 26.0 40.0 105.0 98.9 340.2
03 15:30 13.5 73 8.54 8.8 20 24 1005.4 0.4 19.5 25.6 39.4 103.4 97.3 334.9
03 15:20 13.8 73 8.7 9 19 22 1013.1 0.4 19.8 26.1 40.2 105.5 99.7 343.1
03 15:10 14.3 71 8.72 9.1 22 24 1013.1 0.4 19.8 25.9 40.0 105.1 99.3 341.8
03 15:00 14.5 68 8.46 8.7 17 24 1005.9 0.4 19.3 25.2 38.6 101.3 95.1 327.1
03 14:50 14.2 66 8.06 8.1 11 13 1013.1 0.4 18.4 24.9 37.5 98.2 90.9 312.1
03 14:40 13.7 69 8.17 8.1 15 17 1013.1 0.4 18.7 25.2 38.1 100.0 92.9 319.1
03 14:30 13.3 70 8.09 8 17 22 1006.3 0.4 18.5 25.0 37.7 99.0 91.8 315.3
03 14:20 13.1 71 8.1 8.1 15 17 1013.1 0.4 18.6 25.3 38.1 100.0 92.7 318.4
03 14:10 13.2 73 8.38 8.6 17 20 1013.1 0.4 19.1 25.7 39.2 102.9 96.2 330.8
03 14:00 12.9 74 8.34 8.4 19 28 1006.5 0.4 19.1 25.5 38.9 102.1 95.5 328.5
03 13:50 12.9 73 8.23 8.3 20 24 1013.1 0.4 18.8 25.5 38.8 101.6 94.6 325.2
03 13:40 12.9 73 8.23 8.3 22 26 1013.1 0.4 18.8 25.5 38.8 101.6 94.6 325.2
03 13:30 13.2 76 8.73 9.1 20 28 1006.9 0.4 19.9 26.0 40.3 106.0 100.4 345.4
03 13:20 13 73 8.28 8.4 20 22 1013.1 0.4 18.9 25.6 38.9 102.1 95.2 327.1
03 13:10 13.3 72 8.32 8.3 20 24 1013.1 0.4 19.0 25.6 38.9 102.1 95.3 327.6
03 13:00 13.3 68 7.86 7.5 20 26 1007.1 0.4 18.0 24.6 36.8 96.6 88.9 305.1
03 12:50 12.9 72 8.12 8.1 17 19 1013.1 0.4 18.6 25.4 38.3 100.5 93.2 320.1
03 12:40 12.7 74 8.24 8.3 22 24 1013.1 0.4 18.9 25.6 38.9 102.0 95.0 326.4
03 12:30 12.8 75 8.4 8.5 26 35 1007.5 0.4 19.2 25.6 39.2 103.0 96.5 331.9
03 12:20 13 73 8.28 8.4 30 33 1013.1 0.4 18.9 25.6 38.9 102.1 95.2 327.1

Last Refresh: 04-Aug-2020 07:01:48

Most of the information presented on this site is sourced from the Bureau of Meteorology.  Copyright in all material sourced from the Bureau of Meteorology resides with the Commonwealth of Australia.